createdAt,value
2023-02-12T00:02:32.098Z,101531.53
2023-02-12T00:05:37.991Z,101527.25
2023-02-12T00:08:40.320Z,101518.53
2023-02-12T00:11:42.842Z,101518.66
2023-02-12T00:14:45.229Z,101535.91
2023-02-12T00:17:47.851Z,101512.50
2023-02-12T00:20:50.220Z,101511.63
2023-02-12T00:23:52.835Z,101519.44
2023-02-12T00:26:55.317Z,101508.28
2023-02-12T00:29:57.817Z,101489.16
2023-02-12T00:33:01.415Z,101510.84
2023-02-12T00:36:04.968Z,101502.22
2023-02-12T00:39:07.285Z,101492.75
2023-02-12T00:42:11.418Z,101506.53
2023-02-12T00:45:14.074Z,101492.66
2023-02-12T00:48:16.856Z,101497.03
2023-02-12T00:51:19.392Z,101503.84
2023-02-12T00:54:22.001Z,101478.78
2023-02-12T00:57:25.275Z,101496.06
2023-02-12T01:00:28.191Z,101503.84
2023-02-12T01:03:32.519Z,101496.03
2023-02-12T01:06:35.464Z,101491.63
2023-02-12T01:09:38.376Z,101507.28
2023-02-12T01:12:41.729Z,101497.03
2023-02-12T01:15:44.213Z,101505.72
2023-02-12T01:18:47.939Z,101502.22
2023-02-12T01:21:50.332Z,101493.59
2023-02-12T01:24:53.250Z,101496.25
2023-02-12T01:27:55.722Z,101491.97
2023-02-12T01:30:58.781Z,101498.13
2023-02-12T01:34:02.310Z,101487.75
2023-02-12T01:37:05.164Z,101472.12
2023-02-12T01:40:09.834Z,101464.56
2023-02-12T01:43:13.122Z,101453.31
2023-02-12T01:46:15.415Z,101481.84
2023-02-12T01:49:22.594Z,101461.91
2023-02-12T01:52:35.674Z,101483.53
2023-02-12T01:55:38.541Z,101479.19
2023-02-12T01:58:43.351Z,101486.91
2023-02-12T02:01:46.428Z,101486.97
2023-02-12T02:04:57.736Z,101503.25
2023-02-12T02:08:00.406Z,101498.13
2023-02-12T02:11:22.978Z,101508.47
2023-02-12T02:14:34.558Z,101484.19
2023-02-12T02:17:59.178Z,101490.91
2023-02-12T02:21:35.887Z,101478.03
2023-02-12T02:25:04.378Z,101507.44
2023-02-12T02:28:25.966Z,101497.94
2023-02-12T02:31:42.783Z,101504.84
2023-02-12T02:35:24.065Z,101516.06
2023-02-12T02:38:34.062Z,101526.72
2023-02-12T02:41:46.121Z,101528.25
2023-02-12T02:44:57.859Z,101531.94
2023-02-12T02:48:05.348Z,101534.59
2023-02-12T02:51:22.354Z,101533.69
2023-02-12T02:54:42.605Z,101539.81
2023-02-12T02:57:50.620Z,101534.66
2023-02-12T03:01:02.711Z,101538.37
2023-02-12T03:04:13.565Z,101536.69
2023-02-12T03:07:26.162Z,101556.69
2023-02-12T03:10:36.312Z,101551.56
2023-02-12T03:13:49.997Z,101560.03
2023-02-12T03:17:13.684Z,101563.94
2023-02-12T03:20:22.134Z,101569.31
2023-02-12T03:23:31.644Z,101568.53
2023-02-12T03:26:44.335Z,101571.19
2023-02-12T03:29:47.296Z,101574.81
2023-02-12T03:33:09.402Z,101581.59
2023-02-12T03:36:35.048Z,101572.81
2023-02-12T03:39:58.691Z,101583.16
2023-02-12T03:43:15.932Z,101584.78
2023-02-12T03:46:27.811Z,101582.91
2023-02-12T03:49:39.565Z,101582.03
2023-02-12T03:52:43.419Z,101595.13
2023-02-12T03:55:50.513Z,101590.03
2023-02-12T03:58:52.905Z,101595.97
2023-02-12T04:01:58.790Z,101593.47
2023-02-12T04:05:06.820Z,101603.09
2023-02-12T04:08:11.357Z,101600.56
2023-02-12T04:11:26.641Z,101607.44
2023-02-12T04:14:50.201Z,101624.78
2023-02-12T04:18:14.452Z,101641.22
2023-02-12T04:21:29.162Z,101645.44
2023-02-12T04:24:39.145Z,101655.84
2023-02-12T04:27:51.388Z,101656.81
2023-02-12T04:31:04.038Z,101675.78
2023-02-12T04:34:11.700Z,101672.22
2023-02-12T04:37:19.682Z,101674.72
2023-02-12T04:40:23.104Z,101670.31
2023-02-12T04:43:30.323Z,101661.66
2023-02-12T04:46:32.651Z,101668.50
2023-02-12T04:49:35.470Z,101671.88
2023-02-12T04:52:37.663Z,101684.87
2023-02-12T04:55:40.202Z,101697.97
2023-02-12T04:58:42.870Z,101698.19
2023-02-12T05:01:45.803Z,101703.66
2023-02-12T05:04:50.034Z,101707.41
2023-02-12T05:07:52.777Z,101714.66
2023-02-12T05:10:54.972Z,101712.16
2023-02-12T05:13:58.543Z,101716.50
2023-02-12T05:17:00.914Z,101728.13
2023-02-12T05:20:04.459Z,101735.91
2023-02-12T05:23:06.677Z,101728.66
2023-02-12T05:26:14.094Z,101739.13
2023-02-12T05:29:16.469Z,101747.03
2023-02-12T05:32:19.013Z,101765.25
2023-02-12T05:35:21.249Z,101763.59
2023-02-12T05:38:24.533Z,101757.44
2023-02-12T05:41:27.403Z,101758.44
2023-02-12T05:44:30.035Z,101763.75
2023-02-12T05:47:32.389Z,101769.00
2023-02-12T05:50:35.089Z,101774.19
2023-02-12T05:53:43.562Z,101774.25
2023-02-12T05:56:48.146Z,101787.22
2023-02-12T05:59:50.420Z,101792.44
2023-02-12T06:02:53.211Z,101787.47
2023-02-12T06:05:56.143Z,101798.88
2023-02-12T06:08:59.306Z,101807.50
2023-02-12T06:12:02.361Z,101823.94
2023-02-12T06:15:04.809Z,101811.09
2023-02-12T06:18:07.440Z,101819.72
2023-02-12T06:21:09.698Z,101823.19
2023-02-12T06:24:13.829Z,101828.31
2023-02-12T06:27:16.126Z,101834.47
2023-02-12T06:30:19.028Z,101830.06
2023-02-12T06:33:21.248Z,101819.69
2023-02-12T06:36:24.766Z,101837.66
2023-02-12T06:39:27.039Z,101825.47
2023-02-12T06:42:29.695Z,101827.09
2023-02-12T06:45:33.146Z,101831.41
2023-02-12T06:48:36.570Z,101855.53
2023-02-12T06:51:41.213Z,101859.72
2023-02-12T06:54:48.910Z,101871.66
2023-02-12T06:57:51.199Z,101872.91
2023-02-12T07:00:53.935Z,101879.44
2023-02-12T07:03:59.631Z,101877.50
2023-02-12T07:07:02.339Z,101884.66
2023-02-12T07:10:04.947Z,101893.81
2023-02-12T07:13:07.612Z,101898.03
2023-02-12T07:16:14.389Z,101898.37
2023-02-12T07:19:18.302Z,101908.47
2023-02-12T07:22:22.255Z,101903.16
2023-02-12T07:25:24.800Z,101913.06
2023-02-12T07:28:27.566Z,101923.59
2023-02-12T07:31:31.794Z,101919.94
2023-02-12T07:34:34.184Z,101924.31
2023-02-12T07:37:36.736Z,101929.59
2023-02-12T07:40:39.141Z,101937.22
2023-02-12T07:43:43.562Z,101929.44
2023-02-12T07:46:48.766Z,101935.22
2023-02-12T07:49:51.453Z,101947.12
2023-02-12T07:52:53.675Z,101953.56
2023-02-12T07:56:04.080Z,101951.09
2023-02-12T07:59:10.198Z,101955.19
2023-02-12T08:02:13.075Z,101950.56
2023-02-12T08:05:15.800Z,101954.53
2023-02-12T08:08:18.245Z,101961.22
2023-02-12T08:11:21.771Z,101956.81
2023-02-12T08:14:24.114Z,101961.59
2023-02-12T08:17:29.365Z,101966.81
2023-02-12T08:20:34.580Z,101974.31
2023-02-12T08:23:38.090Z,101970.69
2023-02-12T08:26:41.308Z,101973.91
2023-02-12T08:29:44.055Z,101980.22
2023-02-12T08:32:49.745Z,101990.91
2023-02-12T08:36:03.915Z,101985.22
2023-02-12T08:39:08.094Z,101992.81
2023-02-12T08:42:10.832Z,101989.63
2023-02-12T08:45:13.114Z,101997.84
2023-02-12T08:48:17.817Z,101985.66
2023-02-12T08:51:23.175Z,101994.81
2023-02-12T08:54:28.250Z,101999.84
2023-02-12T08:57:30.742Z,102003.81
2023-02-12T09:00:33.406Z,102009.03
2023-02-12T09:03:36.041Z,102007.13
2023-02-12T09:06:40.725Z,102017.13
2023-02-12T09:09:44.521Z,102010.63
2023-02-12T09:12:48.336Z,102024.06
2023-02-12T09:15:50.739Z,102024.88
2023-02-12T09:18:53.621Z,102026.44
2023-02-12T09:21:57.036Z,102029.13
2023-02-12T09:24:59.622Z,102040.91
2023-02-12T09:28:05.160Z,102047.72
2023-02-12T09:31:09.789Z,102047.53
2023-02-12T09:34:12.068Z,102048.31
2023-02-12T09:37:14.932Z,102045.34
2023-02-12T09:40:29.425Z,102043.69
2023-02-12T09:43:52.914Z,102048.03
2023-02-12T09:47:18.360Z,102051.00
2023-02-12T09:50:30.530Z,102049.94
2023-02-12T09:53:36.989Z,102056.06
2023-02-12T09:56:43.149Z,102055.28
2023-02-12T09:59:50.034Z,102054.34
2023-02-12T10:02:54.361Z,102062.22
2023-02-12T10:06:11.922Z,102056.56
2023-02-12T10:09:36.561Z,102060.34
2023-02-12T10:12:56.505Z,102064.19
2023-02-12T10:16:23.011Z,102064.50
2023-02-12T10:20:03.125Z,102065.84
2023-02-12T10:23:38.136Z,102065.00
2023-02-12T10:26:49.166Z,102086.69
2023-02-12T10:29:52.037Z,102088.88
2023-02-12T10:33:03.738Z,102076.91
2023-02-12T10:36:44.729Z,102081.97
2023-02-12T10:40:03.088Z,102087.03
2023-02-12T10:43:05.482Z,102086.44
2023-02-12T10:46:17.814Z,102087.28
2023-02-12T10:49:20.986Z,102093.88
2023-02-12T10:52:29.631Z,102090.69
2023-02-12T10:55:36.934Z,102090.28
2023-02-12T10:58:50.660Z,102084.91
2023-02-12T11:01:54.180Z,102076.97
2023-02-12T11:04:59.275Z,102079.22
2023-02-12T11:08:02.281Z,102076.53
2023-02-12T11:11:11.894Z,102074.37
2023-02-12T11:14:20.979Z,102077.28
2023-02-12T11:17:29.739Z,102072.56
2023-02-12T11:20:35.128Z,102074.81
2023-02-12T11:23:40.773Z,102077.84
2023-02-12T11:26:43.326Z,102073.56
2023-02-12T11:29:52.430Z,102080.38
2023-02-12T11:32:54.605Z,102080.91
2023-02-12T11:36:01.942Z,102080.06
2023-02-12T11:39:10.288Z,102083.69
2023-02-12T11:42:22.485Z,102087.00
2023-02-12T11:45:35.582Z,102086.56
2023-02-12T11:48:40.709Z,102090.91
2023-02-12T11:51:47.880Z,102090.53
2023-02-12T11:54:53.427Z,102093.09
2023-02-12T11:58:26.554Z,102084.03
2023-02-12T12:01:36.655Z,102089.84
2023-02-12T12:04:41.881Z,102083.16
2023-02-12T12:07:53.223Z,102091.91
2023-02-12T12:11:08.109Z,102078.88
2023-02-12T12:14:54.925Z,102078.88
2023-02-12T12:18:35.456Z,102069.56
2023-02-12T12:21:49.478Z,102069.97
2023-02-12T12:25:06.808Z,102078.28
2023-02-12T12:28:40.780Z,102074.59
2023-02-12T12:31:48.549Z,102058.56
2023-02-12T12:34:50.841Z,102050.53
2023-02-12T12:38:26.849Z,102061.53
2023-02-12T12:41:52.957Z,102055.53
2023-02-12T12:45:12.629Z,102061.31
2023-02-12T12:48:14.763Z,102066.88
2023-02-12T12:51:48.490Z,102069.53
2023-02-12T12:55:04.466Z,102070.87
2023-02-12T12:58:20.173Z,102059.97
2023-02-12T13:02:01.421Z,102071.91
2023-02-12T13:05:33.610Z,102068.41
2023-02-12T13:08:55.092Z,102067.03
2023-02-12T13:12:22.314Z,102067.31
2023-02-12T13:15:53.525Z,102076.00
2023-02-12T13:19:33.357Z,102068.31
2023-02-12T13:22:56.222Z,102071.69
2023-02-12T13:26:20.743Z,102067.66
2023-02-12T13:29:48.265Z,102074.16
2023-02-12T13:33:01.694Z,102070.81
2023-02-12T13:36:06.097Z,102072.38
2023-02-12T13:39:39.473Z,102071.47
2023-02-12T13:43:16.820Z,102073.81
2023-02-12T13:46:37.822Z,102076.75
2023-02-12T13:49:41.092Z,102085.47
2023-02-12T13:52:58.022Z,102086.91
2023-02-12T13:56:34.897Z,102092.03
2023-02-12T13:59:37.286Z,102090.16
2023-02-12T14:02:40.772Z,102089.38
2023-02-12T14:05:43.312Z,102107.47
2023-02-12T14:08:52.225Z,102099.44
2023-02-12T14:11:55.104Z,102099.56
2023-02-12T14:15:05.857Z,102094.50
2023-02-12T14:18:36.078Z,102091.41
2023-02-12T14:21:38.601Z,102090.81
2023-02-12T14:24:50.545Z,102096.25
2023-02-12T14:27:58.437Z,102094.69
2023-02-12T14:31:23.897Z,102097.94
2023-02-12T14:34:32.008Z,102096.16
2023-02-12T14:37:37.895Z,102094.25
2023-02-12T14:40:45.060Z,102101.41
2023-02-12T14:44:02.745Z,102111.84
2023-02-12T14:47:17.273Z,102112.16
2023-02-12T14:50:29.659Z,102111.19
2023-02-12T14:53:35.433Z,102113.00
2023-02-12T14:56:46.807Z,102124.72
2023-02-12T14:59:51.778Z,102119.34
2023-02-12T15:03:02.857Z,102118.25
2023-02-12T15:06:12.020Z,102111.22
2023-02-12T15:09:55.733Z,102114.09
2023-02-12T15:13:25.517Z,102120.88
2023-02-12T15:16:52.780Z,102110.16
2023-02-12T15:20:23.513Z,102122.16
2023-02-12T15:23:43.809Z,102126.88
2023-02-12T15:26:53.150Z,102126.28
2023-02-12T15:29:58.095Z,102133.12
2023-02-12T15:33:04.554Z,102131.00
2023-02-12T15:36:10.632Z,102132.94
2023-02-12T15:39:22.894Z,102124.66
2023-02-12T15:42:34.400Z,102124.25
2023-02-12T15:45:36.968Z,102119.56
2023-02-12T15:48:40.524Z,102134.81
2023-02-12T15:51:42.933Z,102132.44
2023-02-12T15:54:46.882Z,102132.84
2023-02-12T15:57:52.100Z,102143.47
2023-02-12T16:00:59.497Z,102143.84
2023-02-12T16:04:07.107Z,102156.44
2023-02-12T16:07:11.860Z,102157.56
2023-02-12T16:10:17.668Z,102158.75
2023-02-12T16:13:29.250Z,102164.22
2023-02-12T16:16:44.563Z,102159.16
2023-02-12T16:20:16.011Z,102178.50
2023-02-12T16:23:20.961Z,102175.22
2023-02-12T16:26:26.209Z,102181.41
2023-02-12T16:29:31.418Z,102186.84
2023-02-12T16:32:41.301Z,102192.19
2023-02-12T16:35:43.997Z,102191.34
2023-02-12T16:38:49.315Z,102194.12
2023-02-12T16:41:56.270Z,102192.63
2023-02-12T16:44:58.613Z,102196.37
2023-02-12T16:48:18.099Z,102197.53
2023-02-12T16:51:28.425Z,102207.22
2023-02-12T16:54:35.765Z,102216.63
2023-02-12T16:57:37.882Z,102221.00
2023-02-12T17:00:40.732Z,102210.47
2023-02-12T17:03:44.550Z,102220.97
2023-02-12T17:06:47.242Z,102225.38
2023-02-12T17:09:49.870Z,102232.38
2023-02-12T17:12:53.116Z,102229.13
2023-02-12T17:16:01.516Z,102233.47
2023-02-12T17:19:04.148Z,102237.81
2023-02-12T17:22:08.923Z,102234.44
2023-02-12T17:25:13.597Z,102234.53
2023-02-12T17:28:16.099Z,102241.59
2023-02-12T17:31:20.662Z,102235.50
2023-02-12T17:34:24.317Z,102228.62
2023-02-12T17:37:27.055Z,102236.44
2023-02-12T17:40:29.256Z,102234.69
2023-02-12T17:43:31.862Z,102230.37
2023-02-12T17:46:34.440Z,102229.56
2023-02-12T17:49:38.642Z,102242.53
2023-02-12T17:52:41.117Z,102243.44
2023-02-12T17:55:44.134Z,102247.81
2023-02-12T17:58:47.156Z,102252.22
2023-02-12T18:01:49.646Z,102257.44
2023-02-12T18:04:52.225Z,102259.22
2023-02-12T18:07:55.979Z,102262.72
2023-02-12T18:10:59.150Z,102264.50
2023-02-12T18:14:02.234Z,102264.50
2023-02-12T18:17:05.037Z,102272.25
2023-02-12T18:20:08.295Z,102271.44
2023-02-12T18:23:11.463Z,102272.34
2023-02-12T18:26:18.636Z,102268.00
2023-02-12T18:29:21.258Z,102268.84
2023-02-12T18:32:24.428Z,102275.78
2023-02-12T18:35:27.126Z,102279.22
2023-02-12T18:38:29.952Z,102277.53
2023-02-12T18:41:33.299Z,102272.34
2023-02-12T18:44:38.082Z,102283.56
2023-02-12T18:47:40.554Z,102280.09
2023-02-12T18:50:42.777Z,102284.41
2023-02-12T18:53:46.312Z,102280.13
2023-02-12T18:56:52.267Z,102283.56
2023-02-12T18:59:54.965Z,102281.84
2023-02-12T19:02:57.249Z,102289.62
2023-02-12T19:06:04.652Z,102278.38
2023-02-12T19:09:07.262Z,102277.53
2023-02-12T19:12:10.736Z,102275.78
2023-02-12T19:15:13.399Z,102274.94
2023-02-12T19:18:16.557Z,102278.41
2023-02-12T19:21:19.758Z,102279.22
2023-02-12T19:24:22.672Z,102281.81
2023-02-12T19:27:24.901Z,102285.28
2023-02-12T19:30:27.421Z,102283.56
2023-02-12T19:33:29.709Z,102292.19
2023-02-12T19:36:35.298Z,102301.59
2023-02-12T19:39:37.460Z,102305.94
2023-02-12T19:42:40.004Z,102302.47
2023-02-12T19:45:42.352Z,102302.44
2023-02-12T19:48:46.420Z,102302.47
2023-02-12T19:51:49.745Z,102305.03
2023-02-12T19:54:52.359Z,102319.69
2023-02-12T19:57:54.648Z,102316.22
2023-02-12T20:00:58.950Z,102323.09
2023-02-12T20:04:02.626Z,102319.62
2023-02-12T20:07:07.629Z,102320.44
2023-02-12T20:10:12.203Z,102325.66
2023-02-12T20:13:14.552Z,102330.78
2023-02-12T20:16:20.938Z,102329.97
2023-02-12T20:19:26.359Z,102325.69
2023-02-12T20:22:29.020Z,102323.09
2023-02-12T20:25:31.993Z,102340.31
2023-02-12T20:28:36.247Z,102344.63
2023-02-12T20:31:38.848Z,102342.66
2023-02-12T20:34:50.518Z,102344.38
2023-02-12T20:37:53.438Z,102353.78
2023-02-12T20:40:59.338Z,102346.03
2023-02-12T20:44:01.911Z,102356.31
2023-02-12T20:47:04.508Z,102358.03
2023-02-12T20:50:07.627Z,102353.72
2023-02-12T20:53:10.244Z,102364.06
2023-02-12T20:56:18.618Z,102374.50
2023-02-12T20:59:21.226Z,102371.09
2023-02-12T21:02:23.565Z,102373.75
2023-02-12T21:05:26.199Z,102384.97
2023-02-12T21:08:28.720Z,102387.56
2023-02-12T21:11:31.668Z,102383.25
2023-02-12T21:14:33.910Z,102378.09
2023-02-12T21:17:36.773Z,102385.81
2023-02-12T21:20:39.073Z,102384.97
2023-02-12T21:23:42.166Z,102378.94
2023-02-12T21:26:45.547Z,102389.37
2023-02-12T21:29:48.094Z,102380.81
2023-02-12T21:32:51.161Z,102386.84
2023-02-12T21:35:53.769Z,102380.72
2023-02-12T21:38:57.404Z,102385.81
2023-02-12T21:42:02.803Z,102393.59
2023-02-12T21:45:06.212Z,102387.53
2023-02-12T21:48:09.134Z,102381.50
2023-02-12T21:51:42.884Z,102384.09
2023-02-12T21:54:45.861Z,102384.91
2023-02-12T21:57:48.057Z,102397.88
2023-02-12T22:00:50.713Z,102398.78
2023-02-12T22:03:54.180Z,102404.81
2023-02-12T22:06:57.983Z,102414.28
2023-02-12T22:10:00.986Z,102420.37
2023-02-12T22:13:03.797Z,102428.09
2023-02-12T22:16:16.007Z,102424.59
2023-02-12T22:19:18.723Z,102422.00
2023-02-12T22:22:23.775Z,102428.03
2023-02-12T22:25:27.693Z,102426.31
2023-02-12T22:28:32.428Z,102437.47
2023-02-12T22:31:37.433Z,102441.81
2023-02-12T22:34:40.036Z,102435.78
2023-02-12T22:37:42.187Z,102434.06
2023-02-12T22:40:45.355Z,102437.47
2023-02-12T22:43:48.743Z,102440.16
2023-02-12T22:46:51.450Z,102438.47
2023-02-12T22:49:53.616Z,102438.44
2023-02-12T22:52:56.143Z,102441.88
2023-02-12T22:56:02.842Z,102454.75
2023-02-12T22:59:05.573Z,102441.00
2023-02-12T23:02:08.043Z,102440.88
2023-02-12T23:05:10.660Z,102432.97
2023-02-12T23:08:12.868Z,102433.03
2023-02-12T23:11:15.441Z,102438.22
2023-02-12T23:14:17.859Z,102446.69
2023-02-12T23:17:20.526Z,102447.56
2023-02-12T23:20:22.832Z,102452.88
2023-02-12T23:23:25.527Z,102442.47
2023-02-12T23:26:29.818Z,102450.06
2023-02-12T23:29:32.472Z,102442.38
2023-02-12T23:32:34.633Z,102451.91
2023-02-12T23:35:37.216Z,102455.31
2023-02-12T23:38:39.482Z,102453.56
2023-02-12T23:41:42.035Z,102458.75
2023-02-12T23:44:45.330Z,102458.69
2023-02-12T23:47:50.788Z,102450.03
2023-02-12T23:50:52.993Z,102453.41
2023-02-12T23:53:55.528Z,102457.69
2023-02-12T23:56:57.754Z,102455.91
